Time;durP1;ratioP1;P1;durP2;ratioP2;P2;SDS_P1;SDS_P2;PMS_P1;PMS_P2;Temp;Humidity;BMP_temperature;BMP_pressure;BME280_temperature;BME280_humidity;BME280_pressure;Samples;Min_cycle;Max_cycle;Signal;HPM_P1;HPM_P2
2024/03/28 00:01:44;;;;;;;2.00;1.55;;;;;;;;;;5021330;28;20026;-64
2024/03/28 00:04:10;;;;;;;2.42;1.50;;;;;;;;;;5012158;28;20014;-65
2024/03/28 00:06:36;;;;;;;4.72;1.55;;;;;;;;;;5021468;28;20049;-66
2024/03/28 00:09:02;;;;;;;2.42;1.63;;;;;;;;;;5017276;28;20029;-66
2024/03/28 00:11:28;;;;;;;2.38;1.23;;;;;;;;;;5020788;28;20041;-64
2024/03/28 00:13:54;;;;;;;3.20;1.45;;;;;;;;;;5011937;28;20026;-63
2024/03/28 00:16:20;;;;;;;5.88;1.42;;;;;;;;;;5021407;28;20022;-65
2024/03/28 00:18:46;;;;;;;3.67;1.65;;;;;;;;;;5014972;28;20388;-65
2024/03/28 00:21:12;;;;;;;2.58;1.40;;;;;;;;;;5017281;28;20026;-63
2024/03/28 00:23:38;;;;;;;2.58;1.30;;;;;;;;;;5007714;28;20030;-65
2024/03/28 00:26:04;;;;;;;3.38;1.25;;;;;;;;;;5012834;28;20033;-64
2024/03/28 00:28:30;;;;;;;2.35;1.27;;;;;;;;;;5011094;28;20087;-64
2024/03/28 00:30:56;;;;;;;3.13;1.77;;;;;;;;;;5016069;28;20029;-65
2024/03/28 00:33:22;;;;;;;1.83;1.30;;;;;;;;;;5012282;28;20100;-65
2024/03/28 00:35:49;;;;;;;1.83;1.60;;;;;;;;;;5012799;28;20022;-66
2024/03/28 00:38:16;;;;;;;5.80;1.50;;;;;;;;;;5006823;28;20022;-65
2024/03/28 00:40:54;;;;;;;2.25;1.42;;;;;;;;;;5009809;28;20077;-65
2024/03/28 00:43:21;;;;;;;2.58;1.33;;;;;;;;;;5015563;28;20462;-65
2024/03/28 00:45:47;;;;;;;6.57;2.17;;;;;;;;;;5012612;28;20071;-65
2024/03/28 00:48:15;;;;;;;10.52;2.15;;;;;;;;;;5020689;28;20046;-64
2024/03/28 00:50:41;;;;;;;2.78;1.20;;;;;;;;;;5013564;28;20386;-65
2024/03/28 00:53:07;;;;;;;3.13;1.38;;;;;;;;;;5017556;28;20022;-65
2024/03/28 00:55:34;;;;;;;2.95;1.20;;;;;;;;;;5009579;28;20092;-65
2024/03/28 00:58:00;;;;;;;1.35;1.25;;;;;;;;;;5020159;28;20021;-63
2024/03/28 01:00:26;;;;;;;2.63;1.30;;;;;;;;;;5011479;28;20022;-64
2024/03/28 01:02:52;;;;;;;4.35;1.17;;;;;;;;;;5019653;28;20044;-65
2024/03/28 01:05:18;;;;;;;1.52;1.25;;;;;;;;;;5018285;28;20422;-65
2024/03/28 01:07:44;;;;;;;1.90;1.50;;;;;;;;;;4994909;28;20397;-65
2024/03/28 01:10:10;;;;;;;2.15;1.10;;;;;;;;;;5019909;28;20105;-65
2024/03/28 01:12:36;;;;;;;0.95;0.77;;;;;;;;;;5012501;28;20061;-64
2024/03/28 01:15:02;;;;;;;2.05;1.10;;;;;;;;;;5018218;28;20026;-64
2024/03/28 01:17:28;;;;;;;1.50;0.98;;;;;;;;;;5019407;28;20078;-64
2024/03/28 01:19:54;;;;;;;3.05;1.55;;;;;;;;;;5010738;28;20018;-64
2024/03/28 01:22:20;;;;;;;1.15;0.90;;;;;;;;;;5019943;28;20447;-65
2024/03/28 01:24:47;;;;;;;4.50;1.10;;;;;;;;;;5013707;28;20044;-64
2024/03/28 01:27:13;;;;;;;1.33;1.10;;;;;;;;;;5016324;28;20026;-66
2024/03/28 01:29:39;;;;;;;2.10;1.00;;;;;;;;;;5019359;28;20056;-66
2024/03/28 01:32:05;;;;;;;1.10;1.00;;;;;;;;;;5010349;28;20018;-65
2024/03/28 01:34:31;;;;;;;3.53;1.05;;;;;;;;;;5012966;28;20049;-66
2024/03/28 01:36:57;;;;;;;1.08;0.98;;;;;;;;;;5012116;28;20081;-65
2024/03/28 01:39:23;;;;;;;1.40;1.10;;;;;;;;;;5016708;28;20029;-64
2024/03/28 01:41:50;;;;;;;2.67;0.90;;;;;;;;;;5011557;28;20760;-66
2024/03/28 01:44:16;;;;;;;1.55;1.30;;;;;;;;;;5012916;28;20477;-66
2024/03/28 01:46:42;;;;;;;1.42;1.20;;;;;;;;;;5015382;28;20037;-66
2024/03/28 01:49:09;;;;;;;1.13;1.00;;;;;;;;;;5011381;28;20493;-63
2024/03/28 01:51:35;;;;;;;0.90;0.88;;;;;;;;;;5010843;28;20025;-67
2024/03/28 01:54:01;;;;;;;2.15;0.93;;;;;;;;;;5012995;28;20096;-67
2024/03/28 01:56:27;;;;;;;3.47;1.00;;;;;;;;;;5012919;28;20038;-66
2024/03/28 01:58:53;;;;;;;2.17;0.98;;;;;;;;;;5016006;28;20026;-62
2024/03/28 02:01:19;;;;;;;5.20;1.02;;;;;;;;;;5016792;28;20018;-65
2024/03/28 02:03:45;;;;;;;1.88;1.10;;;;;;;;;;5015003;28;20076;-64
2024/03/28 02:06:11;;;;;;;2.55;1.10;;;;;;;;;;5021301;28;20486;-64
2024/03/28 02:08:37;;;;;;;3.10;0.95;;;;;;;;;;5013768;28;20033;-64
2024/03/28 02:11:03;;;;;;;2.92;1.25;;;;;;;;;;5019520;28;20030;-61
2024/03/28 02:13:29;;;;;;;1.25;1.10;;;;;;;;;;4995366;28;20026;-65
2024/03/28 02:15:55;;;;;;;1.95;1.10;;;;;;;;;;5021034;28;20113;-66
2024/03/28 02:18:22;;;;;;;5.93;1.27;;;;;;;;;;5011384;28;20022;-64
2024/03/28 02:20:48;;;;;;;8.57;1.38;;;;;;;;;;5021047;28;20025;-64
2024/03/28 02:23:15;;;;;;;5.50;1.40;;;;;;;;;;5018453;28;20025;-65
2024/03/28 02:25:41;;;;;;;2.92;1.27;;;;;;;;;;5013553;28;20458;-65
2024/03/28 02:28:07;;;;;;;8.15;1.63;;;;;;;;;;5020738;28;20699;-65
2024/03/28 02:30:33;;;;;;;3.40;1.20;;;;;;;;;;5012753;28;20018;-63
2024/03/28 02:32:59;;;;;;;4.85;1.17;;;;;;;;;;5018973;28;20018;-65
2024/03/28 02:35:25;;;;;;;4.22;1.40;;;;;;;;;;5019907;28;20052;-65
2024/03/28 02:37:51;;;;;;;3.22;1.15;;;;;;;;;;5011901;28;20029;-65
2024/03/28 02:40:17;;;;;;;2.28;1.23;;;;;;;;;;5051935;23;20521;-65
2024/03/28 02:42:43;;;;;;;2.40;1.00;;;;;;;;;;5038045;28;20018;-65
2024/03/28 02:45:09;;;;;;;3.42;1.10;;;;;;;;;;5040819;28;20014;-65
2024/03/28 02:47:36;;;;;;;1.55;1.23;;;;;;;;;;5039578;28;20027;-65
2024/03/28 02:50:02;;;;;;;3.00;1.20;;;;;;;;;;5028506;28;20536;-65
2024/03/28 02:52:28;;;;;;;5.28;1.10;;;;;;;;;;5023322;28;20029;-65
2024/03/28 02:54:54;;;;;;;5.78;1.15;;;;;;;;;;5016748;28;20499;-65
2024/03/28 02:57:23;;;;;;;2.42;1.10;;;;;;;;;;5019145;28;20034;-65
2024/03/28 02:59:50;;;;;;;1.75;1.02;;;;;;;;;;5023123;28;20010;-65
2024/03/28 03:02:16;;;;;;;2.55;1.10;;;;;;;;;;5013798;28;20485;-65
2024/03/28 03:04:42;;;;;;;1.90;1.05;;;;;;;;;;5023496;28;20030;-65
2024/03/28 03:07:08;;;;;;;0.68;0.68;;;;;;;;;;5020301;28;20025;-65
2024/03/28 03:09:34;;;;;;;3.05;1.25;;;;;;;;;;5016977;28;20041;-65
2024/03/28 03:12:00;;;;;;;1.70;0.93;;;;;;;;;;5023220;28;20108;-65
2024/03/28 03:14:26;;;;;;;1.48;1.13;;;;;;;;;;5014452;28;20102;-65
2024/03/28 03:16:52;;;;;;;1.48;0.90;;;;;;;;;;5022866;28;20030;-65
2024/03/28 03:19:18;;;;;;;1.77;1.00;;;;;;;;;;5021580;28;20441;-65
2024/03/28 03:21:48;;;;;;;1.50;1.00;;;;;;;;;;5014975;28;20022;-65
2024/03/28 03:24:14;;;;;;;3.42;1.10;;;;;;;;;;5023353;28;20014;-65
2024/03/28 03:26:49;;;;;;;1.95;0.85;;;;;;;;;;5016040;28;20036;-66
2024/03/28 03:34:45;;;;;;;1.75;1.02;;;;;;;;;;5023235;28;20044;-66
2024/03/28 03:37:14;;;;;;;1.50;0.90;;;;;;;;;;5020037;28;20373;-66
2024/03/28 03:39:40;;;;;;;1.67;1.00;;;;;;;;;;5015122;28;20021;-66
2024/03/28 03:42:08;;;;;;;0.70;0.63;;;;;;;;;;5022483;28;20346;-66
2024/03/28 03:44:34;;;;;;;1.95;1.05;;;;;;;;;;5015121;28;20078;-66
2024/03/28 03:47:01;;;;;;;2.25;0.90;;;;;;;;;;5021085;28;20025;-66
2024/03/28 03:49:27;;;;;;;2.95;1.00;;;;;;;;;;5022035;28;20079;-65
2024/03/28 03:51:53;;;;;;;4.15;1.20;;;;;;;;;;5013500;28;20033;-64
2024/03/28 03:54:19;;;;;;;1.75;0.98;;;;;;;;;;5022521;28;20053;-65
2024/03/28 03:56:45;;;;;;;3.22;0.80;;;;;;;;;;5016108;28;20021;-65
2024/03/28 03:59:11;;;;;;;1.95;1.02;;;;;;;;;;5018285;28;20077;-65
2024/03/28 04:01:37;;;;;;;1.02;0.65;;;;;;;;;;5021911;28;20039;-65
2024/03/28 04:04:04;;;;;;;1.73;0.90;;;;;;;;;;5013246;28;20388;-65
2024/03/28 04:06:30;;;;;;;2.42;0.65;;;;;;;;;;5024707;28;20037;-65
2024/03/28 04:08:56;;;;;;;0.68;0.50;;;;;;;;;;5025616;28;20029;-65
2024/03/28 04:11:22;;;;;;;1.63;0.93;;;;;;;;;;5025776;28;20025;-64
2024/03/28 04:13:48;;;;;;;1.77;0.60;;;;;;;;;;5030993;28;20349;-65
2024/03/28 04:16:14;;;;;;;1.60;0.90;;;;;;;;;;5018889;28;20030;-65
2024/03/28 04:18:41;;;;;;;1.58;0.77;;;;;;;;;;5033350;28;20030;-65
2024/03/28 04:21:07;;;;;;;2.45;0.98;;;;;;;;;;5031703;28;20048;-64
2024/03/28 04:23:33;;;;;;;3.70;1.05;;;;;;;;;;5022586;28;20556;-65
2024/03/28 04:26:00;;;;;;;4.97;0.93;;;;;;;;;;5032836;28;20014;-66
2024/03/28 04:28:26;;;;;;;4.00;0.73;;;;;;;;;;5025871;28;20042;-65
2024/03/28 04:30:52;;;;;;;7.88;1.02;;;;;;;;;;5023030;28;20069;-65
2024/03/28 04:33:19;;;;;;;2.03;0.75;;;;;;;;;;5017912;28;20041;-65
2024/03/28 04:35:48;;;;;;;1.73;0.93;;;;;;;;;;5013816;28;20045;-65
2024/03/28 04:38:15;;;;;;;2.20;0.50;;;;;;;;;;5012725;28;20030;-65
2024/03/28 04:40:41;;;;;;;2.75;0.80;;;;;;;;;;5021359;28;20032;-66
2024/03/28 04:43:09;;;;;;;1.90;0.65;;;;;;;;;;5018169;28;20014;-66
2024/03/28 04:45:35;;;;;;;0.70;0.70;;;;;;;;;;5015055;28;20014;-66
2024/03/28 04:48:02;;;;;;;1.33;0.60;;;;;;;;;;5011489;28;20026;-66
2024/03/28 04:50:28;;;;;;;1.00;0.45;;;;;;;;;;5020927;28;20026;-67
2024/03/28 04:52:54;;;;;;;0.65;0.47;;;;;;;;;;5016073;28;20158;-66
2024/03/28 04:55:20;;;;;;;1.40;1.02;;;;;;;;;;5016920;28;20402;-66
2024/03/28 04:57:46;;;;;;;0.55;0.55;;;;;;;;;;5021030;28;20025;-66
2024/03/28 05:00:13;;;;;;;0.80;0.60;;;;;;;;;;5011710;28;20026;-66
2024/03/28 05:02:39;;;;;;;1.33;0.75;;;;;;;;;;5020841;28;20030;-67
2024/03/28 05:05:06;;;;;;;0.60;0.60;;;;;;;;;;5017142;28;20064;-67
2024/03/28 05:07:32;;;;;;;0.82;0.50;;;;;;;;;;5015327;28;20106;-67
2024/03/28 05:09:58;;;;;;;2.63;0.93;;;;;;;;;;5021017;28;20061;-65
2024/03/28 05:12:24;;;;;;;3.20;1.17;;;;;;;;;;5011117;28;20050;-65
2024/03/28 05:14:52;;;;;;;2.67;0.70;;;;;;;;;;5020695;28;20032;-65
2024/03/28 05:17:18;;;;;;;4.25;1.10;;;;;;;;;;5019063;28;20060;-67
2024/03/28 05:19:44;;;;;;;3.03;0.70;;;;;;;;;;5012621;28;20448;-66
2024/03/28 05:22:11;;;;;;;3.05;0.77;;;;;;;;;;5020615;28;20034;-65
2024/03/28 05:24:37;;;;;;;7.00;1.02;;;;;;;;;;5001070;28;20010;-65
2024/03/28 05:27:03;;;;;;;1.83;0.90;;;;;;;;;;5018641;28;20029;-66
2024/03/28 05:29:29;;;;;;;6.25;0.90;;;;;;;;;;5020321;28;20108;-65
2024/03/28 05:31:55;;;;;;;4.45;0.75;;;;;;;;;;5011292;28;20021;-65
2024/03/28 05:34:22;;;;;;;3.22;1.25;;;;;;;;;;5020765;28;20434;-69
2024/03/28 05:36:48;;;;;;;4.40;1.13;;;;;;;;;;5014387;28;20485;-67
2024/03/28 05:39:14;;;;;;;4.40;0.80;;;;;;;;;;5016788;28;20117;-67
2024/03/28 05:41:41;;;;;;;4.05;0.73;;;;;;;;;;5019556;28;20033;-68
2024/03/28 05:44:07;;;;;;;2.95;0.82;;;;;;;;;;5010898;28;20025;-68
2024/03/28 05:46:33;;;;;;;2.25;0.73;;;;;;;;;;5014490;28;20493;-67
2024/03/28 05:48:59;;;;;;;6.35;1.50;;;;;;;;;;5010163;28;20032;-67
2024/03/28 05:51:25;;;;;;;7.68;1.92;;;;;;;;;;5009903;28;20021;-63
2024/03/28 05:53:51;;;;;;;13.15;2.00;;;;;;;;;;5018665;28;20631;-62
2024/03/28 05:56:20;;;;;;;15.40;2.45;;;;;;;;;;5019893;28;20030;-62
2024/03/28 05:58:46;;;;;;;11.55;2.05;;;;;;;;;;5012972;28;20457;-62
2024/03/28 06:01:13;;;;;;;12.82;2.15;;;;;;;;;;5016300;28;20018;-62
2024/03/28 06:03:39;;;;;;;7.68;1.50;;;;;;;;;;5019616;28;20607;-64
2024/03/28 06:06:05;;;;;;;9.15;2.08;;;;;;;;;;5010529;28;20063;-64
2024/03/28 06:08:32;;;;;;;13.32;2.22;;;;;;;;;;5020172;28;20105;-62
2024/03/28 06:10:58;;;;;;;10.77;2.00;;;;;;;;;;5015039;28;20017;-60
2024/03/28 06:13:24;;;;;;;8.10;1.92;;;;;;;;;;5015041;28;20026;-60
2024/03/28 06:15:50;;;;;;;9.13;1.70;;;;;;;;;;5019696;28;20013;-60
2024/03/28 06:18:16;;;;;;;6.80;1.75;;;;;;;;;;5019359;28;20026;-63
2024/03/28 06:20:42;;;;;;;22.25;3.33;;;;;;;;;;5012875;28;20029;-57
2024/03/28 06:23:08;;;;;;;23.25;4.07;;;;;;;;;;5016911;28;20022;-61
2024/03/28 06:25:38;;;;;;;19.40;5.00;;;;;;;;;;5020014;28;20107;-59
2024/03/28 06:28:05;;;;;;;15.57;3.55;;;;;;;;;;5011053;28;20528;-59
2024/03/28 06:30:31;;;;;;;12.13;2.60;;;;;;;;;;5019865;28;20401;-58
2024/03/28 06:32:57;;;;;;;14.63;2.97;;;;;;;;;;5015774;28;20385;-59
2024/03/28 06:35:23;;;;;;;11.32;2.92;;;;;;;;;;5015395;28;20097;-59
2024/03/28 06:37:50;;;;;;;12.60;3.20;;;;;;;;;;5012292;28;20044;-57
2024/03/28 06:40:16;;;;;;;8.20;2.70;;;;;;;;;;5019875;28;20116;-58
2024/03/28 06:42:42;;;;;;;11.35;3.28;;;;;;;;;;5012957;28;20461;-60
2024/03/28 06:45:08;;;;;;;9.13;2.97;;;;;;;;;;5016753;28;20018;-60
2024/03/28 06:47:34;;;;;;;12.98;2.00;;;;;;;;;;5009932;28;20026;-59
2024/03/28 06:50:00;;;;;;;9.10;2.67;;;;;;;;;;5009443;28;20375;-61
2024/03/28 06:52:26;;;;;;;5.28;1.92;;;;;;;;;;5010295;28;20113;-60
2024/03/28 06:54:52;;;;;;;9.45;2.70;;;;;;;;;;5009754;28;20117;-60
2024/03/28 06:57:18;;;;;;;10.23;2.65;;;;;;;;;;5009787;28;20022;-60
2024/03/28 06:59:44;;;;;;;6.47;2.13;;;;;;;;;;5009519;28;20029;-60
2024/03/28 07:02:10;;;;;;;12.55;2.85;;;;;;;;;;5009873;28;20022;-60
2024/03/28 07:04:36;;;;;;;12.95;2.42;;;;;;;;;;5009726;28;20426;-67
2024/03/28 07:07:02;;;;;;;12.88;1.67;;;;;;;;;;5010209;28;20098;-66
2024/03/28 07:09:29;;;;;;;1.98;0.80;;;;;;;;;;5010411;28;20030;-66
2024/03/28 07:11:55;;;;;;;4.47;1.35;;;;;;;;;;5010317;28;20025;-65
2024/03/28 07:14:21;;;;;;;3.03;0.82;;;;;;;;;;5010309;28;20033;-65
2024/03/28 07:16:47;;;;;;;1.85;0.52;;;;;;;;;;5010225;28;20029;-65
2024/03/28 07:19:13;;;;;;;0.52;0.40;;;;;;;;;;5010416;28;20033;-65
2024/03/28 07:21:39;;;;;;;1.08;0.82;;;;;;;;;;5009987;28;20030;-65
2024/03/28 07:24:05;;;;;;;2.08;0.40;;;;;;;;;;5009620;28;20030;-63
2024/03/28 07:26:31;;;;;;;0.25;0.25;;;;;;;;;;5005485;28;20056;-63
2024/03/28 07:28:57;;;;;;;1.15;0.60;;;;;;;;;;4990387;28;20473;-65
2024/03/28 07:31:23;;;;;;;2.80;0.68;;;;;;;;;;5007814;28;20266;-66
2024/03/28 07:33:50;;;;;;;4.03;0.77;;;;;;;;;;5009072;28;20662;-63
2024/03/28 07:36:16;;;;;;;1.38;0.90;;;;;;;;;;5012418;28;20525;-63
2024/03/28 07:38:43;;;;;;;3.08;0.80;;;;;;;;;;5012665;28;20033;-63
2024/03/28 07:41:09;;;;;;;17.45;1.30;;;;;;;;;;5013106;28;20034;-63
2024/03/28 07:43:35;;;;;;;4.18;0.70;;;;;;;;;;5014262;28;20026;-63
2024/03/28 07:46:05;;;;;;;7.35;0.50;;;;;;;;;;5014996;28;20022;-63
2024/03/28 07:48:34;;;;;;;3.40;0.73;;;;;;;;;;5014552;28;20026;-64
2024/03/28 07:51:01;;;;;;;7.28;0.73;;;;;;;;;;5014508;28;20101;-63
2024/03/28 07:53:31;;;;;;;3.58;0.60;;;;;;;;;;5014471;28;20172;-63
2024/03/28 07:55:57;;;;;;;4.28;0.73;;;;;;;;;;5014239;28;20068;-63
2024/03/28 07:58:25;;;;;;;1.45;0.40;;;;;;;;;;5014634;28;20367;-63
2024/03/28 08:00:51;;;;;;;2.65;0.70;;;;;;;;;;5014305;28;20029;-64
2024/03/28 08:03:18;;;;;;;2.78;0.65;;;;;;;;;;5014289;28;20047;-63
2024/03/28 08:05:46;;;;;;;2.00;0.30;;;;;;;;;;5014268;28;20454;-63
2024/03/28 08:08:13;;;;;;;0.70;0.30;;;;;;;;;;5014128;28;20026;-63
2024/03/28 08:10:39;;;;;;;2.92;0.75;;;;;;;;;;5013877;28;20036;-63
2024/03/28 08:13:05;;;;;;;1.27;0.30;;;;;;;;;;5014139;28;20441;-63
2024/03/28 08:15:33;;;;;;;0.85;0.40;;;;;;;;;;5014055;28;20540;-63
2024/03/28 08:18:00;;;;;;;1.00;0.30;;;;;;;;;;5014059;28;20029;-63
2024/03/28 08:20:30;;;;;;;2.65;0.70;;;;;;;;;;5014264;28;20030;-63
2024/03/28 08:22:59;;;;;;;2.38;0.98;;;;;;;;;;4996115;28;20057;-63
2024/03/28 08:25:25;;;;;;;0.90;0.82;;;;;;;;;;5013938;28;20026;-64
2024/03/28 08:27:52;;;;;;;2.13;0.52;;;;;;;;;;5013905;28;20029;-63
2024/03/28 08:30:19;;;;;;;2.25;0.30;;;;;;;;;;5013671;28;20159;-63
2024/03/28 08:32:45;;;;;;;1.85;0.30;;;;;;;;;;5013788;28;20415;-63
2024/03/28 08:35:13;;;;;;;0.75;0.43;;;;;;;;;;5013991;28;20501;-63
2024/03/28 08:37:40;;;;;;;0.60;0.50;;;;;;;;;;5014046;28;20029;-63
2024/03/28 08:40:12;;;;;;;1.05;0.73;;;;;;;;;;5014070;28;20440;-63
2024/03/28 08:42:43;;;;;;;0.30;0.30;;;;;;;;;;5013486;28;20034;-63
2024/03/28 08:45:10;;;;;;;0.20;0.20;;;;;;;;;;5013054;28;20029;-63
2024/03/28 08:47:36;;;;;;;0.77;0.30;;;;;;;;;;5013266;28;20529;-63
2024/03/28 08:50:05;;;;;;;2.35;0.40;;;;;;;;;;5013391;28;20029;-63
2024/03/28 08:52:31;;;;;;;0.30;0.20;;;;;;;;;;5013349;28;20046;-64
2024/03/28 08:54:57;;;;;;;0.40;0.20;;;;;;;;;;5013386;28;20037;-63
2024/03/28 08:57:23;;;;;;;1.27;0.20;;;;;;;;;;5013160;28;20026;-64
2024/03/28 08:59:50;;;;;;;1.45;0.47;;;;;;;;;;5013111;28;20022;-64
2024/03/28 09:02:16;;;;;;;0.57;0.30;;;;;;;;;;5012873;28;20051;-63
2024/03/28 09:04:42;;;;;;;2.42;0.40;;;;;;;;;;5013147;28;20117;-63
2024/03/28 09:07:09;;;;;;;0.55;0.22;;;;;;;;;;5013092;28;20493;-63
2024/03/28 09:09:37;;;;;;;0.50;0.22;;;;;;;;;;5012904;28;20034;-64
2024/03/28 09:12:03;;;;;;;1.45;0.30;;;;;;;;;;5012709;28;20071;-64
2024/03/28 09:14:30;;;;;;;1.95;0.40;;;;;;;;;;5012675;28;20115;-63
2024/03/28 09:16:56;;;;;;;0.30;0.30;;;;;;;;;;5012850;28;20038;-64
2024/03/28 09:19:22;;;;;;;1.27;0.38;;;;;;;;;;5012918;28;20024;-64
2024/03/28 09:21:48;;;;;;;0.52;0.10;;;;;;;;;;5012595;28;20424;-63
2024/03/28 09:24:14;;;;;;;0.30;0.20;;;;;;;;;;5012872;28;20153;-64
2024/03/28 09:26:40;;;;;;;0.20;0.20;;;;;;;;;;5012809;28;20026;-63
2024/03/28 09:29:06;;;;;;;1.35;0.32;;;;;;;;;;5012539;28;20076;-64
2024/03/28 09:31:32;;;;;;;0.70;0.40;;;;;;;;;;5012394;28;20061;-63
2024/03/28 09:33:58;;;;;;;2.60;0.40;;;;;;;;;;5012559;28;20026;-64
2024/03/28 09:36:24;;;;;;;0.20;0.20;;;;;;;;;;5012408;28;20449;-64
2024/03/28 09:38:50;;;;;;;0.15;0.15;;;;;;;;;;5012536;28;20366;-64
2024/03/28 09:41:22;;;;;;;0.88;0.30;;;;;;;;;;5012212;28;20042;-64
2024/03/28 09:43:49;;;;;;;0.50;0.22;;;;;;;;;;5012361;28;20037;-64
2024/03/28 09:46:17;;;;;;;0.30;0.20;;;;;;;;;;5012313;28;20073;-62
2024/03/28 09:48:44;;;;;;;0.30;0.28;;;;;;;;;;5012148;28;20053;-63
2024/03/28 09:51:11;;;;;;;0.93;0.30;;;;;;;;;;5012281;28;20080;-63
2024/03/28 09:53:38;;;;;;;0.20;0.20;;;;;;;;;;5012119;28;20493;-63
2024/03/28 09:56:04;;;;;;;0.80;0.35;;;;;;;;;;5012098;28;20056;-63
2024/03/28 09:58:30;;;;;;;0.40;0.30;;;;;;;;;;5011263;28;20037;-63
2024/03/28 10:00:56;;;;;;;0.52;0.40;;;;;;;;;;5011818;28;20076;-63
2024/03/28 10:03:28;;;;;;;0.38;0.38;;;;;;;;;;5012100;28;20026;-64
2024/03/28 10:05:54;;;;;;;0.70;0.40;;;;;;;;;;5012027;28;20106;-63
2024/03/28 10:08:20;;;;;;;0.28;0.20;;;;;;;;;;5012111;28;20507;-63
2024/03/28 10:10:47;;;;;;;0.32;0.28;;;;;;;;;;5011997;28;20057;-63
2024/03/28 10:13:14;;;;;;;0.35;0.20;;;;;;;;;;5011601;28;20026;-63
2024/03/28 10:15:41;;;;;;;0.25;0.20;;;;;;;;;;5012150;28;20030;-64
2024/03/28 10:18:07;;;;;;;0.90;0.17;;;;;;;;;;5012159;28;20063;-64
2024/03/28 10:20:35;;;;;;;0.45;0.20;;;;;;;;;;5011673;28;20489;-64
2024/03/28 10:23:05;;;;;;;0.20;0.17;;;;;;;;;;5011768;28;20026;-64
2024/03/28 10:25:33;;;;;;;0.20;0.20;;;;;;;;;;5011581;28;20026;-64
2024/03/28 10:28:03;;;;;;;0.35;0.30;;;;;;;;;;4994069;28;20092;-63
2024/03/28 10:30:29;;;;;;;0.40;0.30;;;;;;;;;;5011797;28;20030;-64
2024/03/28 10:33:04;;;;;;;0.47;0.30;;;;;;;;;;5011904;28;20104;-63
2024/03/28 10:35:30;;;;;;;0.20;0.10;;;;;;;;;;5011698;28;20034;-64
2024/03/28 10:38:06;;;;;;;0.60;0.10;;;;;;;;;;5011601;28;20034;-63
2024/03/28 10:40:40;;;;;;;0.28;0.20;;;;;;;;;;5011324;28;20113;-63
2024/03/28 10:43:07;;;;;;;0.90;0.10;;;;;;;;;;5011510;28;20049;-63
2024/03/28 10:45:33;;;;;;;0.43;0.30;;;;;;;;;;5011355;28;20502;-64
2024/03/28 10:48:01;;;;;;;0.20;0.20;;;;;;;;;;5011611;28;20034;-64
2024/03/28 10:50:27;;;;;;;0.40;0.20;;;;;;;;;;5011526;28;20030;-64
2024/03/28 10:52:55;;;;;;;0.75;0.20;;;;;;;;;;5011166;28;20099;-63
2024/03/28 10:55:29;;;;;;;0.17;0.17;;;;;;;;;;4993896;28;20076;-64
2024/03/28 10:57:55;;;;;;;0.30;0.20;;;;;;;;;;5011526;28;20026;-63
2024/03/28 11:00:22;;;;;;;0.52;0.22;;;;;;;;;;5011332;28;20085;-63
2024/03/28 11:02:49;;;;;;;0.95;0.35;;;;;;;;;;5011332;28;20092;-64
2024/03/28 11:05:16;;;;;;;0.17;0.17;;;;;;;;;;5011417;28;20509;-64
2024/03/28 11:07:42;;;;;;;0.32;0.20;;;;;;;;;;5011359;28;20037;-64
2024/03/28 11:10:08;;;;;;;0.38;0.20;;;;;;;;;;5014160;28;20025;-64
2024/03/28 11:12:36;;;;;;;0.05;0.05;;;;;;;;;;5015153;28;20112;-64
2024/03/28 11:15:04;;;;;;;0.28;0.15;;;;;;;;;;5015161;28;20362;-63
2024/03/28 11:17:30;;;;;;;0.10;0.10;;;;;;;;;;5015151;28;20041;-64
2024/03/28 11:20:09;;;;;;;0.30;0.10;;;;;;;;;;5014993;28;20032;-63
2024/03/28 11:22:35;;;;;;;1.23;0.10;;;;;;;;;;5014857;28;20113;-63
2024/03/28 11:25:01;;;;;;;0.52;0.20;;;;;;;;;;5014899;28;20018;-63
2024/03/28 11:27:27;;;;;;;0.57;0.20;;;;;;;;;;5015001;28;20102;-62
2024/03/28 11:30:07;;;;;;;3.25;0.43;;;;;;;;;;5015047;28;20121;-60
2024/03/28 11:32:33;;;;;;;1.70;0.40;;;;;;;;;;5014650;28;20604;-60
2024/03/28 11:35:10;;;;;;;2.35;0.28;;;;;;;;;;5014821;28;20022;-60
2024/03/28 11:37:36;;;;;;;1.30;0.40;;;;;;;;;;5014632;28;20577;-60
2024/03/28 11:40:03;;;;;;;3.42;0.40;;;;;;;;;;5014611;28;20112;-60
2024/03/28 11:42:29;;;;;;;3.35;0.68;;;;;;;;;;5014683;28;20018;-60
2024/03/28 11:45:07;;;;;;;1.75;0.32;;;;;;;;;;5014543;28;20028;-61
2024/03/28 11:47:34;;;;;;;1.90;0.50;;;;;;;;;;5014510;28;20022;-61
2024/03/28 11:50:06;;;;;;;0.43;0.22;;;;;;;;;;5014331;28;20022;-60
2024/03/28 11:52:32;;;;;;;1.02;0.40;;;;;;;;;;5014474;28;20085;-60
2024/03/28 11:54:58;;;;;;;1.65;0.30;;;;;;;;;;5014672;28;20371;-60
2024/03/28 11:57:24;;;;;;;1.48;0.47;;;;;;;;;;5014215;28;20030;-60
2024/03/28 11:59:50;;;;;;;2.80;0.82;;;;;;;;;;5014252;28;20512;-60
2024/03/28 12:02:16;;;;;;;5.35;0.50;;;;;;;;;;5014086;28;20033;-60
2024/03/28 12:04:42;;;;;;;0.63;0.47;;;;;;;;;;5014480;28;20505;-61
2024/03/28 12:07:08;;;;;;;1.38;0.28;;;;;;;;;;5014208;28;20030;-60
2024/03/28 12:09:36;;;;;;;4.72;0.50;;;;;;;;;;5014003;28;20553;-60
2024/03/28 12:12:06;;;;;;;0.17;0.17;;;;;;;;;;5013917;28;20034;-59
2024/03/28 12:14:32;;;;;;;0.65;0.30;;;;;;;;;;5014223;28;20097;-60
2024/03/28 12:16:59;;;;;;;0.82;0.10;;;;;;;;;;5014040;28;20022;-60
2024/03/28 12:19:25;;;;;;;1.55;0.30;;;;;;;;;;5013985;28;20029;-60
2024/03/28 12:21:51;;;;;;;2.60;0.63;;;;;;;;;;5012700;28;20733;-60
2024/03/28 12:24:18;;;;;;;1.63;0.32;;;;;;;;;;5013900;28;20068;-60
2024/03/28 12:26:44;;;;;;;0.73;0.32;;;;;;;;;;5013830;28;20390;-60
2024/03/28 12:29:10;;;;;;;0.95;0.20;;;;;;;;;;5013798;28;20037;-60
2024/03/28 12:31:36;;;;;;;0.35;0.20;;;;;;;;;;5013384;28;20026;-60
2024/03/28 12:34:09;;;;;;;3.60;0.10;;;;;;;;;;5013877;28;20116;-60
2024/03/28 12:36:36;;;;;;;1.55;0.22;;;;;;;;;;5013886;28;20434;-60
2024/03/28 12:39:04;;;;;;;1.27;0.28;;;;;;;;;;5013677;28;20387;-60
2024/03/28 12:41:30;;;;;;;0.65;0.20;;;;;;;;;;5013513;28;20033;-60
2024/03/28 12:44:03;;;;;;;0.63;0.32;;;;;;;;;;5013608;28;20100;-59
2024/03/28 12:46:29;;;;;;;0.68;0.38;;;;;;;;;;5013832;28;20389;-60
2024/03/28 12:48:56;;;;;;;0.10;0.10;;;;;;;;;;4996037;28;20030;-60
2024/03/28 12:51:21;;;;;;;1.33;0.20;;;;;;;;;;5013280;28;20113;-58
2024/03/28 12:53:48;;;;;;;0.20;0.13;;;;;;;;;;5013640;28;20053;-60
2024/03/28 12:56:14;;;;;;;0.40;0.25;;;;;;;;;;5017283;28;20033;-60
2024/03/28 12:58:40;;;;;;;0.10;0.10;;;;;;;;;;5018940;28;20025;-59
2024/03/28 13:01:06;;;;;;;0.93;0.10;;;;;;;;;;5019202;28;20050;-59
2024/03/28 13:03:32;;;;;;;0.35;0.35;;;;;;;;;;5019231;28;20026;-59
2024/03/28 13:05:58;;;;;;;0.28;0.10;;;;;;;;;;5016070;28;20026;-59
2024/03/28 13:08:25;;;;;;;0.22;0.10;;;;;;;;;;5013619;28;20041;-59
2024/03/28 13:10:51;;;;;;;2.20;0.50;;;;;;;;;;5012944;28;20045;-60
2024/03/28 13:13:18;;;;;;;0.63;0.00;;;;;;;;;;5012949;28;20493;-60
2024/03/28 13:15:44;;;;;;;0.15;0.05;;;;;;;;;;5013069;28;20605;-60
2024/03/28 13:18:11;;;;;;;0.52;0.10;;;;;;;;;;5012887;28;20398;-60
2024/03/28 13:20:37;;;;;;;0.35;0.10;;;;;;;;;;5012927;28;20022;-59
2024/03/28 13:23:03;;;;;;;0.20;0.13;;;;;;;;;;5012128;28;20026;-61
2024/03/28 13:25:29;;;;;;;0.57;0.20;;;;;;;;;;5011779;28;20018;-62
2024/03/28 13:27:55;;;;;;;2.33;0.30;;;;;;;;;;5013029;28;20041;-62
2024/03/28 13:30:21;;;;;;;0.57;0.22;;;;;;;;;;5012047;28;20022;-62
2024/03/28 13:32:47;;;;;;;1.80;0.40;;;;;;;;;;5012325;28;20036;-62
2024/03/28 13:35:13;;;;;;;4.30;0.40;;;;;;;;;;5012317;28;20441;-62
2024/03/28 13:37:39;;;;;;;3.28;0.50;;;;;;;;;;5011210;28;20397;-60
2024/03/28 13:40:06;;;;;;;2.65;0.40;;;;;;;;;;5011543;28;20018;-63
2024/03/28 13:42:32;;;;;;;6.47;0.63;;;;;;;;;;5012268;28;20033;-62
2024/03/28 13:44:58;;;;;;;6.55;0.60;;;;;;;;;;5012287;28;20026;-62
2024/03/28 13:47:25;;;;;;;1.85;0.75;;;;;;;;;;5010479;28;20379;-61
2024/03/28 13:49:51;;;;;;;1.10;0.30;;;;;;;;;;5008180;28;20029;-62
2024/03/28 13:52:18;;;;;;;1.20;0.50;;;;;;;;;;5012164;28;20032;-62
2024/03/28 13:54:44;;;;;;;1.75;0.50;;;;;;;;;;5012006;28;20026;-62
2024/03/28 13:57:10;;;;;;;1.92;0.55;;;;;;;;;;5012120;28;20065;-61
2024/03/28 13:59:36;;;;;;;2.85;0.75;;;;;;;;;;5012142;28;20018;-62
2024/03/28 14:02:02;;;;;;;8.32;0.95;;;;;;;;;;5011743;28;20519;-63
2024/03/28 14:04:28;;;;;;;5.90;1.40;;;;;;;;;;5012166;28;20505;-63
2024/03/28 14:06:55;;;;;;;6.85;1.10;;;;;;;;;;5011971;28;20026;-62
2024/03/28 14:09:21;;;;;;;4.78;1.05;;;;;;;;;;5012096;28;20429;-65
2024/03/28 14:11:47;;;;;;;7.32;1.33;;;;;;;;;;5011809;28;20029;-63
2024/03/28 14:14:14;;;;;;;2.47;1.05;;;;;;;;;;5011945;28;20153;-63
2024/03/28 14:16:40;;;;;;;3.97;0.75;;;;;;;;;;5012171;28;20037;-62
2024/03/28 14:19:06;;;;;;;4.55;0.77;;;;;;;;;;5011839;28;20030;-63
2024/03/28 14:21:33;;;;;;;4.57;0.80;;;;;;;;;;5010525;28;20021;-63
2024/03/28 14:23:59;;;;;;;4.72;0.60;;;;;;;;;;5010762;28;20486;-63
2024/03/28 14:26:25;;;;;;;2.05;0.63;;;;;;;;;;5012208;28;20072;-63
2024/03/28 14:28:51;;;;;;;2.38;0.68;;;;;;;;;;5011806;28;20050;-62
2024/03/28 14:31:17;;;;;;;6.85;0.50;;;;;;;;;;5011556;28;20512;-62
2024/03/28 14:33:44;;;;;;;3.80;0.60;;;;;;;;;;5011671;28;20026;-63
2024/03/28 14:36:11;;;;;;;3.90;0.70;;;;;;;;;;5011603;28;20053;-63
2024/03/28 14:38:38;;;;;;;2.30;0.50;;;;;;;;;;5011743;28;20026;-63
2024/03/28 14:41:04;;;;;;;3.28;0.63;;;;;;;;;;5029993;23;20564;-63
2024/03/28 14:43:31;;;;;;;1.38;0.40;;;;;;;;;;5031136;28;20129;-63
2024/03/28 14:46:02;;;;;;;2.42;0.35;;;;;;;;;;5036742;28;20022;-62